Aktualne dane pomiarowe

Uwaga, wersja testowa! Automatyczne pobieranie danych za pomocą narzędzi lub skryptów to umożliwiających jest zabronione.

Dane meteo z obszaru Polski uzyskane na podstawie depesz SYNOP pobieranych co godzinę z NWS. Najedź myszką na symbol przedstawiony w tabeli, aby uzyskać informacje co do jego znaczenia. Prosimy pamiętać, że to testowa wersja strony, która jeszcze nie jest ukończona. Stworzono również jest krótki FAQ dotyczący korzystania z tej podstrony Anomalie temperatury w chwili obecnej odniesione są do okresu referencyjnego 1951-2016. Okres ten będzie później zmieniony na 1981-2010. Kliknij ikonę aby pobrać plik CSV. Kliknij ikonę aby wygenerować mapę synoptyczną dla danego terminu.

Wybierz Datę:    

        

Włodawa (12497)

Dane terminowe dla wybranej stacji. Kliknij datę, aby otrzymać dane z tego terminu dla wszystkich stacji.

TemperaturaZachmurzenieWiatrCiśnienieOpadyPogoda
 Data t td wb tx tn tg rh  Nt Nl Cl Cm Ch ws wd g1 g2 wx mslp ppp ch 24h 12h t ww ww w1 w2  
2019-09-10 23:00:00 8.8 7.9 8.1--- 9420.0wx-wx1wx--11024.21002.2 0.7----22----
2019-09-10 22:00:00 9.1 8.0 8.3--- 9320.0wx-wx1wx--11024.11002.1 0.8----22----
2019-09-10 21:00:00 10.0 8.6 9.0--- 9120.0wx-wx1wx--11023.81001.9 0.8----22----
2019-09-10 20:00:00 10.1 8.4 8.9--- 8920.0wx-wx1wx--11023.41001.5 0.8---------
2019-09-10 19:00:00 11.8 8.5 9.7--- 8020.0wx-wx1wx--11023.11001.3 1.1---------
2019-09-10 18:00:00 14.4 8.6 10.9 21.3 14.4- 6820.0wxwxwxwx1wx-1211022.71001.1 1.1- 0.012------
2019-09-10 17:00:00 16.3 8.5 11.7--- 6020.0wxwxwxwx1wx--11022.11000.7 0.9---------
2019-09-10 16:00:00 18.5 9.0 12.9--- 5420.0wxwxwxwx4wx--41021.41000.2 0.7---------
2019-09-10 15:00:00 19.2 8.8 13.1--- 5120.0wxwxwxwxwx5wx-1251021.21000.0 0.9---------
2019-09-10 14:00:00 20.4 9.0 13.8--- 4820.0wxwxwxwx5wx-1251020.9 999.8 0.9---------
2019-09-10 13:00:00 20.2 8.8 13.6--- 4820.0wxwxwxwx5wx--51020.6 999.5 1.2---------
2019-09-10 12:00:00 20.8 8.8 13.9--- 4620.0wxwxwxwx6wx-1261020.1 999.1 1.1- 0.06------
2019-09-10 11:00:00 19.4 9.0 13.3--- 5120.0wxwxwxwx7wx--71020.0 998.9 1.5---------
2019-09-10 10:00:00 19.1 9.0 13.2--- 5220.0wxwxwxwx6wx---1019.5 998.3 1.4---------
2019-09-10 09:00:00 18.5 9.8 13.3--- 5720.0wxwxwxwx6wx-1261019.2 998.0 1.5---------
2019-09-10 08:00:00 18.4 10.7 13.7--- 6120.0wxwxwxwx6wx-1261018.6 997.4 1.5---------
2019-09-10 07:00:00 17.6 10.7 13.3--- 6420.0wxwxwx6wx--61018.1 996.9 1.5---------
2019-09-10 06:00:00 16.0 11.0 12.8 22.1 13.7 13 7220.0wxwxwxwxwx5wx-1151017.8 996.5 1.8 0.1 0.112wx-w1- 10.9
2019-09-10 05:00:00 14.0 11.0 12.0--- 8220.0wxwxwxwxwx3wx-1131017.4 995.9 1.7---------
2019-09-10 04:00:00 14.2 10.8 12.0--- 8020.0wxwxwxwxwx4wx--41016.9 995.4 1.5---------
2019-09-10 03:00:00 15.1 11.1 12.5--- 7720.0wxwxwxwx5wx--51016.1 994.7 1.9---wx-w1--
2019-09-10 02:00:00 15.9 11.7 13.2--- 7620.0wxwxwx5wx--51015.5 994.2 1.1---wx---
2019-09-10 01:00:00 16.3 12.1 13.5--- 7620.0wxwxwx5wx--51015.2 993.9 2.0---wx---
2019-09-10 00:00:00 17.8 8.9 12.5--- 5620.0wxwxwxwx3wx-1331013.9 992.8 1.2- 0.06------
2019-09-09 23:00:00 18.7 6.2 11.8--- 4420.0wx-wx6wx-1361014.2 993.1 0.9---------
2019-09-09 22:00:00 19.9 5.5 12.1--- 3920.0wx-wx6wx111161012.9 991.9 -0.5---------
2019-09-09 21:00:00 20.7 5.5 12.4--- 3720.0wx-wx6wx-1061012.5 991.6 -0.8---------
2019-09-09 20:00:00 20.8 6.3 12.8--- 3920.0wx-wx5wx-1051013.1 992.2 -0.4---------
2019-09-09 19:00:00 21.4 6.5 13.2--- 3820.0wx-wx5wx--51013.3 992.4 -0.4---------
2019-09-09 18:00:00 22.1 6.3 13.4 27.0 17.9- 3620.0wx-wx4wx-1541013.2 992.4 -0.5- 0.012------
2019-09-09 17:00:00 23.2 6.5 13.9--- 3420.0wx-wxwx4wx--41013.3 992.6 -0.6---------
2019-09-09 16:00:00 24.6 6.8 14.7--- 3220.0wx-wxwx5wx--51013.4 992.8 -0.9---------
2019-09-09 15:00:00 25.3 6.5 14.8--- 3020.0wx-wxwx7wx-1571013.5 992.9 -1.2---------
2019-09-09 14:00:00 25.7 6.3 14.9--- 2918.0wx-wxwx6wx121361013.8 993.2 -1.3---------
2019-09-09 13:00:00 26.4 6.4 15.2--- 2820.0wx-wxwx7wx131571014.2 993.7 -1.1---------
2019-09-09 12:00:00 26.3 5.8 15.0--- 2720.0wx-wxwx9wx151791014.7 994.1 -1.2- 0.06------
2019-09-09 11:00:00 26.1 7.2 15.4--- 3020.0wx-wxwx9wx141691015.1 994.5 -1.2---------
2019-09-09 10:00:00 25.8 6.9 15.2--- 3020.0wx-wxwx9wx151791015.4 994.8 -1.0---------
2019-09-09 09:00:00 25.2 7.3 15.1--- 3220.0wx-wx8wx131381016.0 995.3 -0.5---------
2019-09-09 08:00:00 23.7 8.9 15.2--- 3920.0wx-wxwx6wx121261016.5 995.7 -0.4---------
2019-09-09 07:00:00 21.4 11.7 15.5--- 5420.0wx-wxwx5wx--51016.7 995.8 -0.6----22----
2019-09-09 06:00:00 17.9 12.1 14.2 18.9 14.9 12 6920.0wx-wxwx5wx--51017.0 995.8 -0.7- 0.012-22--- 5.7
2019-09-09 05:00:00 15.7 11.9 13.2--- 7820.0wx-wxwx3wx--31017.5 996.1 -0.4----22----
2019-09-09 04:00:00 14.9 11.9 12.9--- 8220.0wx-wxwx3wx--31017.8 996.4 -0.6----22----
2019-09-09 03:00:00 15.9 12.5 13.6--- 8020.0wx-4wx--41017.9 996.5 -0.9----22----
2019-09-09 02:00:00 16.6 12.9 14.1--- 7920.0wx-3wx--31017.8 996.5 -1.2----22----
2019-09-09 01:00:00 16.8 13.5 14.6--- 8120.0wx-2wx--21018.3 997.0 -1.3----22----
2019-09-09 00:00:00 16.7 13.8 14.7--- 8320.0wx-2wx--21018.7 997.4 -1.3- 0.06-22----
2.9 ms

 

Print Friendly, PDF & Email